createdAt,value
2023-03-21T00:00:11.311Z,62695.27
2023-03-21T00:01:13.957Z,62701.68
2023-03-21T00:02:15.880Z,62692.14
2023-03-21T00:03:18.477Z,62684.54
2023-03-21T00:04:27.091Z,62681.81
2023-03-21T00:05:29.643Z,62690.39
2023-03-21T00:06:31.962Z,62694.05
2023-03-21T00:07:33.861Z,62692.68
2023-03-21T00:08:36.456Z,62691.61
2023-03-21T00:09:38.996Z,62688.34
2023-03-21T00:10:43.898Z,62680.71
2023-03-21T00:11:45.952Z,62690.93
2023-03-21T00:12:48.283Z,62690.39
2023-03-21T00:13:50.291Z,62684.54
2023-03-21T00:14:53.660Z,62686.03
2023-03-21T00:16:20.098Z,62681.27
2023-03-21T00:17:00.249Z,62680.59
2023-03-21T00:18:02.452Z,62682.22
2023-03-21T00:19:05.034Z,62681.67
2023-03-21T00:20:09.542Z,62680.59
2023-03-21T00:22:24.923Z,62691.46
2023-03-21T00:23:27.692Z,62688.34
2023-03-21T00:24:29.761Z,62682.09
2023-03-21T00:25:32.528Z,62672.01
2023-03-21T00:26:34.741Z,62672.57
2023-03-21T00:27:56.860Z,62671.48
2023-03-21T00:28:42.775Z,62667.67
2023-03-21T00:29:45.362Z,62665.90
2023-03-21T00:30:47.961Z,62656.25
2023-03-21T00:31:49.979Z,62659.25
2023-03-21T00:32:56.425Z,62647.96
2023-03-21T00:33:56.249Z,62652.72
2023-03-21T00:35:13.951Z,62655.43
2023-03-21T00:36:12.590Z,62649.04
2023-03-21T00:37:06.584Z,62639.53
2023-03-21T00:38:10.017Z,62645.66
2023-03-21T00:39:12.287Z,62642.93
2023-03-21T00:40:26.649Z,62641.56
2023-03-21T00:41:31.708Z,62642.65
2023-03-21T00:42:22.319Z,62647.29
2023-03-21T00:43:25.081Z,62641.02
2023-03-21T00:44:27.874Z,62639.80
2023-03-21T00:45:30.005Z,62630.69
2023-03-21T00:46:42.819Z,62620.78
2023-03-21T00:47:36.549Z,62622.53
2023-03-21T00:48:39.041Z,62625.65
2023-03-21T00:49:40.932Z,62633.14
2023-03-21T00:50:46.618Z,62630.96
2023-03-21T00:51:48.568Z,62632.74
2023-03-21T00:52:50.624Z,62629.60
2023-03-21T00:53:56.040Z,62639.66
2023-03-21T00:54:59.703Z,62635.98
2023-03-21T00:56:01.783Z,62634.91
2023-03-21T00:57:04.179Z,62635.59
2023-03-21T00:58:07.393Z,62631.79
2023-03-21T00:59:09.391Z,62630.27
2023-03-21T01:00:14.072Z,62632.32
2023-03-21T01:01:16.730Z,62631.64
2023-03-21T01:02:20.205Z,62624.70
2023-03-21T01:03:25.148Z,62625.80
2023-03-21T01:04:26.922Z,62628.24
2023-03-21T01:05:31.630Z,62618.20
2023-03-21T01:06:36.921Z,62623.63
2023-03-21T01:07:39.361Z,62628.80
2023-03-21T01:08:58.114Z,62628.24
2023-03-21T01:09:46.732Z,62621.86
2023-03-21T01:10:50.689Z,62627.29
2023-03-21T01:11:53.148Z,62627.43
2023-03-21T01:12:56.306Z,62612.06
2023-03-21T01:14:10.855Z,62630.55
2023-03-21T01:15:02.543Z,62629.87
2023-03-21T01:16:08.032Z,62637.49
2023-03-21T01:17:10.146Z,62630.15
2023-03-21T01:18:13.347Z,62634.91
2023-03-21T01:19:25.640Z,62636.40
2023-03-21T01:20:23.683Z,62634.37
2023-03-21T01:21:27.194Z,62636.96
2023-03-21T01:22:29.212Z,62628.52
2023-03-21T01:23:31.361Z,62629.06
2023-03-21T01:24:40.438Z,62627.84
2023-03-21T01:25:40.181Z,62624.70
2023-03-21T01:26:42.449Z,62628.80
2023-03-21T01:27:45.241Z,62631.23
2023-03-21T01:28:47.324Z,62630.15
2023-03-21T01:29:49.348Z,62631.11
2023-03-21T01:30:52.030Z,62623.63
2023-03-21T01:31:54.046Z,62626.75
2023-03-21T01:32:56.418Z,62618.20
2023-03-21T01:33:59.604Z,62622.95
2023-03-21T01:35:02.073Z,62621.04
2023-03-21T01:36:12.774Z,62624.70
2023-03-21T01:37:09.113Z,62619.68
2023-03-21T01:38:11.953Z,62620.90
2023-03-21T01:39:13.862Z,62631.50
2023-03-21T01:40:19.542Z,62630.96
2023-03-21T01:41:33.433Z,62628.38
2023-03-21T01:42:29.037Z,62628.52
2023-03-21T01:43:34.126Z,62638.57
2023-03-21T01:44:58.329Z,62632.32
2023-03-21T01:46:21.123Z,62627.70
2023-03-21T01:47:24.292Z,62632.18
2023-03-21T01:48:28.762Z,62633.14
2023-03-21T01:49:37.213Z,62622.53
2023-03-21T01:50:41.430Z,62613.30
2023-03-21T01:53:06.122Z,62622.80
2023-03-21T01:54:11.386Z,62604.32
2023-03-21T01:55:14.524Z,62597.94
2023-03-21T01:56:26.199Z,62604.46
2023-03-21T01:57:35.511Z,62605.95
2023-03-21T01:58:35.620Z,62618.59
2023-03-21T01:59:49.921Z,62626.07
2023-03-21T02:00:53.109Z,62618.85
2023-03-21T02:01:58.909Z,62618.59
2023-03-21T02:03:13.783Z,62612.48
2023-03-21T02:04:09.324Z,62620.10
2023-03-21T02:05:12.834Z,62613.84
2023-03-21T02:06:18.775Z,62616.70
2023-03-21T02:07:29.526Z,62613.02
2023-03-21T02:08:39.651Z,62606.21
2023-03-21T02:09:40.680Z,62612.62
2023-03-21T02:10:48.861Z,62611.53
2023-03-21T02:11:51.587Z,62607.31
2023-03-21T02:12:56.811Z,62617.91
2023-03-21T02:14:06.134Z,62610.99
2023-03-21T02:15:03.398Z,62610.31
2023-03-21T02:16:18.923Z,62614.53
2023-03-21T02:17:36.585Z,62611.67
2023-03-21T02:18:57.771Z,62609.08
2023-03-21T02:20:10.553Z,62604.46
2023-03-21T02:21:39.416Z,62606.21
2023-03-21T02:23:16.759Z,62613.85
2023-03-21T02:25:01.223Z,62606.77
2023-03-21T02:26:21.377Z,62615.74
2023-03-21T02:27:25.302Z,62606.21
2023-03-21T02:28:43.153Z,62610.31
2023-03-21T02:30:03.473Z,62608.14
2023-03-21T02:31:24.443Z,62598.76
2023-03-21T02:32:53.288Z,62609.36
2023-03-21T02:34:18.999Z,62609.36
2023-03-21T02:35:41.530Z,62609.21
2023-03-21T02:36:47.659Z,62605.00
2023-03-21T02:38:00.171Z,62610.73
2023-03-21T02:39:19.035Z,62603.37
2023-03-21T02:40:44.821Z,62599.43
2023-03-21T02:41:56.396Z,62595.89
2023-03-21T02:43:22.216Z,62600.11
2023-03-21T02:44:21.079Z,62593.04
2023-03-21T02:45:29.935Z,62588.15
2023-03-21T02:47:52.826Z,62590.73
2023-03-21T02:50:13.445Z,62575.80
2023-03-21T02:51:19.207Z,62575.80
2023-03-21T02:52:37.860Z,62585.30
2023-03-21T02:53:35.488Z,62589.66
2023-03-21T02:54:48.104Z,62585.57
2023-03-21T02:55:47.034Z,62593.60
2023-03-21T02:56:51.343Z,62588.83
2023-03-21T02:57:56.678Z,62585.57
2023-03-21T02:59:02.595Z,62590.73
2023-03-21T03:00:15.812Z,62588.57
2023-03-21T03:01:10.084Z,62586.40
2023-03-21T03:02:12.783Z,62576.46
2023-03-21T03:03:28.030Z,62580.41
2023-03-21T03:04:23.953Z,62577.70
2023-03-21T03:05:30.065Z,62579.34
2023-03-21T03:06:39.026Z,62567.50
2023-03-21T03:08:04.572Z,62563.56
2023-03-21T03:09:25.086Z,62563.17
2023-03-21T03:10:34.015Z,62560.98
2023-03-21T03:11:38.972Z,62563.83
2023-03-21T03:12:50.558Z,62570.09
2023-03-21T03:14:25.243Z,62568.99
2023-03-21T03:15:25.807Z,62566.41
2023-03-21T03:16:31.601Z,62572.81
2023-03-21T03:17:55.726Z,62568.99
2023-03-21T03:19:01.819Z,62566.29
2023-03-21T03:20:26.866Z,62565.75
2023-03-21T03:21:53.716Z,62568.34
2023-03-21T03:23:09.076Z,62563.56
2023-03-21T03:24:14.776Z,62554.46
2023-03-21T03:25:29.800Z,62551.21
2023-03-21T03:26:28.217Z,62548.35
2023-03-21T03:27:37.995Z,62549.71
2023-03-21T03:28:43.655Z,62553.80
2023-03-21T03:29:48.292Z,62554.46
2023-03-21T03:31:07.533Z,62557.45
2023-03-21T03:32:00.717Z,62561.13
2023-03-21T03:33:05.845Z,62555.02
2023-03-21T03:34:11.631Z,62547.40
2023-03-21T03:35:17.006Z,62551.07
2023-03-21T03:36:31.483Z,62539.93
2023-03-21T03:37:30.112Z,62536.66
2023-03-21T03:38:35.697Z,62533.42
2023-03-21T03:40:58.661Z,62541.83
2023-03-21T03:42:21.704Z,62542.66
2023-03-21T03:43:17.541Z,62519.84
2023-03-21T03:44:22.013Z,62536.96
2023-03-21T03:45:27.722Z,62536.40
2023-03-21T03:46:34.585Z,62531.23
2023-03-21T03:48:03.778Z,62531.65
2023-03-21T03:50:32.983Z,62544.41
2023-03-21T03:51:44.996Z,62529.48
2023-03-21T03:52:57.436Z,62539.80
2023-03-21T03:54:06.703Z,62541.29
2023-03-21T03:55:12.538Z,62544.02
2023-03-21T03:56:14.660Z,62546.32
2023-03-21T03:57:17.308Z,62531.11
2023-03-21T03:58:23.765Z,62523.91
2023-03-21T03:59:25.253Z,62528.93
2023-03-21T04:00:31.174Z,62528.93
2023-03-21T04:01:34.570Z,62533.14
2023-03-21T04:02:38.056Z,62529.88
2023-03-21T04:03:50.774Z,62533.14
2023-03-21T04:04:49.713Z,62527.30
2023-03-21T04:05:51.616Z,62527.30
2023-03-21T04:06:54.219Z,62528.93
2023-03-21T04:07:56.119Z,62537.91
2023-03-21T04:09:01.662Z,62537.08
2023-03-21T04:10:04.743Z,62538.71
2023-03-21T04:11:06.974Z,62533.42
2023-03-21T04:12:08.845Z,62537.91
2023-03-21T04:13:11.360Z,62533.42
2023-03-21T04:14:13.707Z,62538.71
2023-03-21T04:15:16.008Z,62549.98
2023-03-21T04:16:18.669Z,62551.21
2023-03-21T04:17:22.148Z,62548.08
2023-03-21T04:18:24.504Z,62547.00
2023-03-21T04:19:26.474Z,62555.14
2023-03-21T04:20:36.675Z,62553.80
2023-03-21T04:21:32.379Z,62548.08
2023-03-21T04:22:34.248Z,62540.34
2023-03-21T04:23:36.434Z,62527.30
2023-03-21T04:24:39.052Z,62526.22
2023-03-21T04:25:54.002Z,62530.29
2023-03-21T04:26:44.865Z,62513.32
2023-03-21T04:27:47.405Z,62515.76
2023-03-21T04:28:51.312Z,62512.09
2023-03-21T04:29:53.367Z,62506.66
2023-03-21T04:31:03.717Z,62492.14
2023-03-21T04:32:00.682Z,62509.51
2023-03-21T04:33:02.870Z,62513.72
2023-03-21T04:34:05.673Z,62511.43
2023-03-21T04:35:09.197Z,62516.86
2023-03-21T04:36:11.419Z,62519.02
2023-03-21T04:37:13.370Z,62514.95
2023-03-21T04:38:15.239Z,62519.70
2023-03-21T04:39:17.307Z,62523.38
2023-03-21T04:40:22.512Z,62521.33
2023-03-21T04:41:24.613Z,62532.46
2023-03-21T04:42:26.647Z,62544.55
2023-03-21T04:43:28.664Z,62542.11
2023-03-21T04:44:30.580Z,62545.64
2023-03-21T04:45:32.607Z,62542.50
2023-03-21T04:46:34.985Z,62542.92
2023-03-21T04:47:38.140Z,62543.74
2023-03-21T04:48:40.370Z,62548.49
2023-03-21T04:49:43.067Z,62553.80
2023-03-21T04:50:47.103Z,62557.18
2023-03-21T04:51:49.135Z,62565.75
2023-03-21T04:52:51.158Z,62564.92
2023-03-21T04:53:55.397Z,62571.30
2023-03-21T04:54:57.458Z,62586.40
2023-03-21T04:56:01.783Z,62597.14
2023-03-21T04:57:03.959Z,62599.71
2023-03-21T04:58:06.065Z,62608.26
2023-03-21T04:59:11.423Z,62611.53
2023-03-21T05:00:14.988Z,62618.59
2023-03-21T05:01:17.124Z,62624.58
2023-03-21T05:02:19.070Z,62626.89
2023-03-21T05:03:21.159Z,62628.11
2023-03-21T05:04:24.870Z,62637.08
2023-03-21T05:05:27.158Z,62639.66
2023-03-21T05:06:30.880Z,62641.30
2023-03-21T05:07:32.951Z,62647.01
2023-03-21T05:08:36.133Z,62653.79
2023-03-21T05:09:38.134Z,62658.16
2023-03-21T05:10:42.480Z,62667.95
2023-03-21T05:11:44.841Z,62659.37
2023-03-21T05:12:46.737Z,62654.07
2023-03-21T05:13:48.631Z,62657.74
2023-03-21T05:14:50.953Z,62659.25
2023-03-21T05:15:53.894Z,62663.59
2023-03-21T05:16:56.599Z,62667.11
2023-03-21T05:17:58.734Z,62679.91
2023-03-21T05:19:02.913Z,62675.70
2023-03-21T05:20:05.945Z,62682.09
2023-03-21T05:21:08.584Z,62690.93
2023-03-21T05:22:14.546Z,62694.19
2023-03-21T05:23:16.502Z,62698.41
2023-03-21T05:24:20.829Z,62693.77
2023-03-21T05:25:22.850Z,62690.39
2023-03-21T05:26:25.531Z,62699.37
2023-03-21T05:27:27.453Z,62696.22
2023-03-21T05:28:29.342Z,62692.56
2023-03-21T05:29:32.839Z,62698.41
2023-03-21T05:30:35.077Z,62700.43
2023-03-21T05:31:37.234Z,62712.41
2023-03-21T05:32:39.977Z,62715.68
2023-03-21T05:33:43.190Z,62715.40
2023-03-21T05:34:45.210Z,62721.26
2023-03-21T05:35:50.134Z,62715.00
2023-03-21T05:36:52.998Z,62717.17
2023-03-21T05:37:55.109Z,62700.17
2023-03-21T05:38:57.022Z,62719.09
2023-03-21T05:39:59.031Z,62704.25
2023-03-21T05:41:01.820Z,62721.93
2023-03-21T05:42:06.862Z,62725.88
2023-03-21T05:43:08.835Z,62737.17
2023-03-21T05:44:12.813Z,62745.88
2023-03-21T05:45:15.575Z,62751.99
2023-03-21T05:46:18.838Z,62770.25
2023-03-21T05:47:20.933Z,62769.15
2023-03-21T05:48:23.011Z,62781.41
2023-03-21T05:49:25.750Z,62789.02
2023-03-21T05:50:27.910Z,62801.42
2023-03-21T05:51:29.970Z,62807.54
2023-03-21T05:52:34.369Z,62824.16
2023-03-21T05:53:37.449Z,62834.23
2023-03-21T05:54:39.504Z,62850.02
2023-03-21T05:55:41.396Z,62855.21
2023-03-21T05:56:43.763Z,62833.67
2023-03-21T05:57:45.793Z,62839.00
2023-03-21T05:58:47.809Z,62854.79
2023-03-21T05:59:50.409Z,62876.59
2023-03-21T06:00:53.143Z,62886.40
2023-03-21T06:01:55.833Z,62894.70
2023-03-21T06:02:57.771Z,62913.66
2023-03-21T06:03:59.945Z,62917.33
2023-03-21T06:05:02.003Z,62916.93
2023-03-21T06:06:04.480Z,62937.22
2023-03-21T06:07:07.443Z,62962.73
2023-03-21T06:08:09.413Z,62962.85
2023-03-21T06:09:11.819Z,62952.49
2023-03-21T06:10:14.218Z,62961.77
2023-03-21T06:11:25.800Z,62988.91
2023-03-21T06:12:27.766Z,62995.03
2023-03-21T06:13:29.657Z,63006.50
2023-03-21T06:14:31.555Z,63031.46
2023-03-21T06:15:34.239Z,63002.68
2023-03-21T06:16:36.259Z,63033.78
2023-03-21T06:17:38.355Z,63051.77
2023-03-21T06:18:40.364Z,63082.77
2023-03-21T06:19:42.331Z,63086.30
2023-03-21T06:20:44.354Z,63106.39
2023-03-21T06:21:46.679Z,63118.52
2023-03-21T06:22:49.024Z,63080.17
2023-03-21T06:23:50.927Z,63074.58
2023-03-21T06:24:53.117Z,63126.04
2023-03-21T06:25:55.002Z,63149.55
2023-03-21T06:26:57.073Z,63161.57
2023-03-21T06:27:59.064Z,63185.07
2023-03-21T06:29:03.594Z,63183.30
2023-03-21T06:30:06.970Z,63177.41
2023-03-21T06:31:09.085Z,63195.16
2023-03-21T06:32:12.425Z,63202.12
2023-03-21T06:33:14.305Z,63229.46
2023-03-21T06:34:17.465Z,63248.10
2023-03-21T06:35:22.638Z,63265.54
2023-03-21T06:36:24.810Z,63269.38
2023-03-21T06:37:26.897Z,63268.15
2023-03-21T06:38:28.804Z,63256.12
2023-03-21T06:39:30.930Z,63236.82
2023-03-21T06:40:33.418Z,63247.27
2023-03-21T06:41:35.922Z,63280.86
2023-03-21T06:42:37.832Z,63300.66
2023-03-21T06:43:39.725Z,63258.86
2023-03-21T06:44:41.627Z,63279.34
2023-03-21T06:45:44.429Z,63303.41
2023-03-21T06:46:46.571Z,63311.62
2023-03-21T06:47:48.611Z,63350.21
2023-03-21T06:48:50.644Z,63375.52
2023-03-21T06:49:52.528Z,63393.71
2023-03-21T06:50:55.175Z,63411.13
2023-03-21T06:51:57.580Z,63412.21
2023-03-21T06:53:00.051Z,63429.09
2023-03-21T06:54:02.396Z,63426.88
2023-03-21T06:55:05.566Z,63393.88
2023-03-21T06:56:10.398Z,63438.08
2023-03-21T06:57:12.308Z,63471.01
2023-03-21T06:58:14.312Z,63484.40
2023-03-21T06:59:17.156Z,63490.11
2023-03-21T07:00:21.780Z,63487.93
2023-03-21T07:01:23.939Z,63494.27
2023-03-21T07:02:26.135Z,63483.54
2023-03-21T07:03:28.624Z,63489.75
2023-03-21T07:04:31.284Z,63497.00
2023-03-21T07:05:36.884Z,63510.70
2023-03-21T07:06:39.923Z,63516.30
2023-03-21T07:07:42.134Z,63533.73
2023-03-21T07:08:44.111Z,63551.39
2023-03-21T07:09:45.981Z,63577.04
2023-03-21T07:10:49.050Z,63585.93
2023-03-21T07:11:50.953Z,63511.91
2023-03-21T07:12:52.974Z,63511.91
2023-03-21T07:13:54.872Z,63521.24
2023-03-21T07:14:56.744Z,63561.25
2023-03-21T07:16:00.223Z,63541.21
2023-03-21T07:17:02.461Z,63540.85
2023-03-21T07:18:05.342Z,63472.59
2023-03-21T07:19:07.385Z,63518.92
2023-03-21T07:20:11.365Z,63541.75
2023-03-21T07:21:13.827Z,63574.95
2023-03-21T07:22:15.900Z,63602.96
2023-03-21T07:23:22.901Z,63607.23
2023-03-21T07:24:25.951Z,63509.05
2023-03-21T07:25:28.006Z,63507.77
2023-03-21T07:26:30.216Z,63538.90
2023-03-21T07:27:33.087Z,63524.40
2023-03-21T07:28:36.157Z,63565.51
2023-03-21T07:29:38.066Z,63597.87
2023-03-21T07:30:40.497Z,63622.15
2023-03-21T07:31:42.676Z,63632.70
2023-03-21T07:32:44.965Z,63639.16
2023-03-21T07:33:46.880Z,63622.82
2023-03-21T07:34:48.772Z,63580.45
2023-03-21T07:35:52.149Z,63611.96
2023-03-21T07:36:55.573Z,63662.09
2023-03-21T07:37:58.012Z,63675.81
2023-03-21T07:39:00.103Z,63673.41
2023-03-21T07:40:02.488Z,63676.89
2023-03-21T07:41:06.717Z,63676.58
2023-03-21T07:43:10.549Z,63696.89
2023-03-21T07:44:12.607Z,63711.59
2023-03-21T07:45:14.599Z,63605.81
2023-03-21T07:46:18.490Z,63607.46
2023-03-21T07:47:20.690Z,63653.54
2023-03-21T07:48:22.893Z,63603.19
2023-03-21T07:49:25.064Z,63617.65
2023-03-21T07:50:27.944Z,63593.73
2023-03-21T07:51:30.017Z,63632.70
2023-03-21T07:52:32.488Z,63661.11
2023-03-21T07:53:34.867Z,63645.31
2023-03-21T07:54:36.751Z,63680.62
2023-03-21T07:55:39.397Z,63684.38
2023-03-21T07:56:41.841Z,63642.87
2023-03-21T07:57:44.400Z,63637.51
2023-03-21T07:58:47.705Z,63643.54
2023-03-21T07:59:49.824Z,63689.21
2023-03-21T08:00:52.689Z,63699.52
2023-03-21T08:01:54.621Z,63717.20
2023-03-21T08:02:59.024Z,63736.96
2023-03-21T08:04:01.392Z,63761.56
2023-03-21T08:05:04.172Z,63701.71
2023-03-21T08:06:09.016Z,63753.32
2023-03-21T08:07:11.590Z,63691.41
2023-03-21T08:08:13.492Z,63740.82
2023-03-21T08:09:15.762Z,63740.82
2023-03-21T08:10:18.753Z,63714.45
2023-03-21T08:11:20.651Z,63708.96
2023-03-21T08:12:22.663Z,63723.67
2023-03-21T08:13:24.571Z,63746.85
2023-03-21T08:14:29.808Z,63762.77
2023-03-21T08:15:31.837Z,63716.77
2023-03-21T08:16:34.494Z,63782.34
2023-03-21T08:17:36.572Z,63782.34
2023-03-21T08:18:39.458Z,63791.36
2023-03-21T08:19:41.372Z,63789.27
2023-03-21T08:20:43.696Z,63801.25
2023-03-21T08:21:46.074Z,63812.79
2023-03-21T08:22:49.077Z,63818.72
2023-03-21T08:23:53.479Z,63769.38
2023-03-21T08:24:55.534Z,63763.43
2023-03-21T08:25:57.561Z,63739.27
2023-03-21T08:27:01.291Z,63733.56
2023-03-21T08:28:03.840Z,63780.15
2023-03-21T08:29:06.991Z,63811.14
2023-03-21T08:30:11.673Z,63811.14
2023-03-21T08:31:13.878Z,63827.07
2023-03-21T08:32:18.630Z,63832.56
2023-03-21T08:33:23.039Z,63846.20
2023-03-21T08:34:25.164Z,63819.37
2023-03-21T08:35:29.534Z,63843.57
2023-03-21T08:36:31.931Z,63853.22
2023-03-21T08:37:34.587Z,63841.92
2023-03-21T08:38:36.470Z,63807.40
2023-03-21T08:39:38.373Z,63813.88
2023-03-21T08:40:40.692Z,63811.14
2023-03-21T08:41:42.864Z,63801.79
2023-03-21T08:42:45.140Z,63847.73
2023-03-21T08:43:48.536Z,63803.44
2023-03-21T08:44:50.509Z,63798.39
2023-03-21T08:45:52.401Z,63789.16
2023-03-21T08:46:55.384Z,63821.46
2023-03-21T08:47:57.397Z,63849.06
2023-03-21T08:48:59.530Z,63857.73
2023-03-21T08:50:01.513Z,63860.93
2023-03-21T08:51:03.786Z,63864.45
2023-03-21T08:52:05.842Z,63822.13
2023-03-21T08:53:07.773Z,63808.51
2023-03-21T08:54:21.167Z,63804.55
2023-03-21T08:55:23.107Z,63826.53
2023-03-21T08:56:25.451Z,63869.40
2023-03-21T08:57:28.169Z,63857.06
2023-03-21T08:58:30.092Z,63863.79
2023-03-21T08:59:32.324Z,63894.13
2023-03-21T09:00:34.568Z,63906.22
2023-03-21T09:01:36.634Z,63878.19
2023-03-21T09:02:43.186Z,63891.37
2023-03-21T09:03:45.230Z,63893.59
2023-03-21T09:04:47.433Z,63914.36
2023-03-21T09:05:52.473Z,63905.68
2023-03-21T09:06:54.510Z,63911.30
2023-03-21T09:08:48.504Z,63911.84
2023-03-21T09:10:08.286Z,63929.89
2023-03-21T09:10:56.450Z,63944.41
2023-03-21T09:11:58.786Z,63960.04
2023-03-21T09:13:00.807Z,63977.64
2023-03-21T09:14:04.816Z,63985.35
2023-03-21T09:15:08.859Z,63983.80
2023-03-21T09:16:11.379Z,63981.82
2023-03-21T09:17:13.340Z,63964.77
2023-03-21T09:18:15.790Z,63963.02
2023-03-21T09:19:17.794Z,63930.76
2023-03-21T09:20:21.882Z,63937.59
2023-03-21T09:21:25.093Z,63949.59
2023-03-21T09:22:27.202Z,63916.00
2023-03-21T09:23:29.224Z,63928.91
2023-03-21T09:24:31.212Z,63959.59
2023-03-21T09:25:33.119Z,63974.11
2023-03-21T09:26:35.228Z,63975.54
2023-03-21T09:27:37.429Z,63960.70
2023-03-21T09:28:39.852Z,63952.32
2023-03-21T09:29:41.870Z,63954.96
2023-03-21T09:30:43.962Z,63955.42
2023-03-21T09:31:47.169Z,63952.32
2023-03-21T09:32:49.207Z,63894.79
2023-03-21T09:33:54.905Z,63904.57
2023-03-21T09:34:56.946Z,63921.64
2023-03-21T09:35:58.972Z,63902.16
2023-03-21T09:37:01.218Z,63913.81
2023-03-21T09:38:03.113Z,63935.39
2023-03-21T09:39:05.113Z,63946.29
2023-03-21T09:41:40.150Z,63959.59
2023-03-21T09:43:08.231Z,63946.83
2023-03-21T09:44:28.846Z,63965.54
2023-03-21T09:45:44.990Z,63973.89
2023-03-21T09:47:01.818Z,63966.64
2023-03-21T09:48:07.010Z,63966.07
2023-03-21T09:49:24.630Z,63971.69
2023-03-21T09:50:34.089Z,63983.92
2023-03-21T09:51:39.911Z,63975.54
2023-03-21T09:53:09.895Z,63966.86
2023-03-21T09:54:36.702Z,63989.96
2023-03-21T09:55:40.868Z,63976.11
2023-03-21T09:56:45.722Z,63981.60
2023-03-21T09:58:00.525Z,63972.80
2023-03-21T09:59:04.658Z,63989.30
2023-03-21T10:00:14.129Z,63981.82
2023-03-21T10:01:19.109Z,64004.70
2023-03-21T10:02:36.964Z,63989.20
2023-03-21T10:03:39.359Z,63964.66
2023-03-21T10:04:41.291Z,63993.04
2023-03-21T10:05:46.170Z,63970.61
2023-03-21T10:06:55.040Z,63973.46
2023-03-21T10:08:09.647Z,63993.26
2023-03-21T10:09:19.460Z,64007.14
2023-03-21T10:10:28.789Z,64008.45
2023-03-21T10:11:34.120Z,64005.81
2023-03-21T10:12:36.060Z,63973.46
2023-03-21T10:13:53.531Z,63965.09
2023-03-21T10:14:58.202Z,63984.46
2023-03-21T10:17:32.989Z,64025.07
2023-03-21T10:18:37.404Z,64018.70
2023-03-21T10:19:39.509Z,64030.47
2023-03-21T10:20:42.135Z,64014.39
2023-03-21T10:22:00.283Z,63990.95
2023-03-21T10:22:54.495Z,64006.26
2023-03-21T10:23:59.168Z,63990.40
2023-03-21T10:25:01.212Z,63988.21
2023-03-21T10:26:07.045Z,63992.18
2023-03-21T10:27:11.145Z,63996.79
2023-03-21T10:28:16.836Z,63992.05
2023-03-21T10:29:22.696Z,63969.72
2023-03-21T10:30:43.248Z,63996.34
2023-03-21T10:31:46.856Z,64005.27
2023-03-21T10:32:49.424Z,64025.07
2023-03-21T10:33:53.675Z,64029.36
2023-03-21T10:34:57.810Z,64006.92
2023-03-21T10:36:03.627Z,63987.99
2023-03-21T10:37:06.467Z,63980.49
2023-03-21T10:38:12.150Z,63957.94
2023-03-21T10:39:23.824Z,63995.36
2023-03-21T10:40:26.051Z,64008.01
2023-03-21T10:41:28.038Z,64016.27
2023-03-21T10:42:32.148Z,64021.88
2023-03-21T10:43:38.650Z,64027.83
2023-03-21T10:44:44.444Z,64030.69
2023-03-21T10:45:48.062Z,64046.10
2023-03-21T10:47:00.306Z,64040.16
2023-03-21T10:48:06.485Z,64039.94
2023-03-21T10:49:08.692Z,64047.09
2023-03-21T10:50:14.611Z,64014.17
2023-03-21T10:51:21.337Z,64031.14
2023-03-21T10:52:27.004Z,64021.34
2023-03-21T10:53:33.174Z,64033.87
2023-03-21T10:54:35.255Z,64035.10
2023-03-21T10:55:40.320Z,64048.08
2023-03-21T10:57:07.636Z,64028.92
2023-03-21T10:58:16.419Z,64043.03
2023-03-21T10:59:20.753Z,64010.22
2023-03-21T11:00:26.571Z,63989.86
2023-03-21T11:01:32.360Z,64026.28
2023-03-21T11:02:37.125Z,64047.87
2023-03-21T11:03:42.367Z,64067.93
2023-03-21T11:04:44.794Z,64060.43
2023-03-21T11:05:50.421Z,64071.45
2023-03-21T11:06:56.195Z,64045.66
2023-03-21T11:08:01.642Z,64061.77
2023-03-21T11:09:18.276Z,64042.35
2023-03-21T11:10:29.688Z,64053.70
2023-03-21T11:11:40.806Z,64069.14
2023-03-21T11:12:46.480Z,64069.90
2023-03-21T11:14:00.855Z,64084.65
2023-03-21T11:15:26.603Z,64077.62
2023-03-21T11:16:44.565Z,64074.10
2023-03-21T11:17:47.088Z,64071.66
2023-03-21T11:18:51.156Z,64079.60
2023-03-21T11:20:03.503Z,64058.68
2023-03-21T11:21:06.714Z,64076.29
2023-03-21T11:22:10.849Z,64078.49
2023-03-21T11:23:13.208Z,64085.10
2023-03-21T11:24:19.171Z,64091.71
2023-03-21T11:25:27.871Z,64084.65
2023-03-21T11:26:34.116Z,64088.41
2023-03-21T11:27:36.383Z,64100.97
2023-03-21T11:28:41.156Z,64108.57
2023-03-21T11:29:49.675Z,64108.91
2023-03-21T11:30:58.673Z,64093.25
2023-03-21T11:32:03.326Z,64075.85
2023-03-21T11:33:06.356Z,64087.30
2023-03-21T11:34:09.207Z,64093.04
2023-03-21T11:35:19.686Z,64104.94
2023-03-21T11:36:25.503Z,64096.12
2023-03-21T11:37:43.163Z,64101.63
2023-03-21T11:39:00.450Z,64123.76
2023-03-21T11:40:21.330Z,64124.87
2023-03-21T11:41:31.586Z,64128.06
2023-03-21T11:42:46.207Z,64113.30
2023-03-21T11:43:54.316Z,64110.65
2023-03-21T11:45:15.423Z,64127.52
2023-03-21T11:46:23.424Z,64139.73
2023-03-21T11:47:25.646Z,64135.45
2023-03-21T11:48:28.955Z,64139.64
2023-03-21T11:49:33.169Z,64136.45
2023-03-21T11:50:38.869Z,64143.49
2023-03-21T11:51:59.947Z,64136.99
2023-03-21T11:53:24.672Z,64153.41
2023-03-21T11:54:47.160Z,64164.98
2023-03-21T11:56:09.530Z,64169.93
2023-03-21T11:57:15.511Z,64152.96
2023-03-21T11:58:50.472Z,64145.36
2023-03-21T12:00:05.306Z,64149.44
2023-03-21T12:01:16.910Z,64128.06
2023-03-21T12:02:34.907Z,64142.38
2023-03-21T12:03:49.734Z,64155.51
2023-03-21T12:04:56.193Z,64147.34
2023-03-21T12:06:01.380Z,64141.95
2023-03-21T12:07:16.270Z,64141.29
2023-03-21T12:08:37.493Z,64117.15
2023-03-21T12:09:58.689Z,64132.91
2023-03-21T12:11:19.787Z,64121.45
2023-03-21T12:12:52.761Z,64129.17
2023-03-21T12:14:06.888Z,64130.61
2023-03-21T12:15:31.015Z,64118.14
2023-03-21T12:16:53.798Z,64125.86
2023-03-21T12:18:02.590Z,64139.85
2023-03-21T12:19:34.417Z,64160.57
2023-03-21T12:20:43.301Z,64144.81
2023-03-21T12:22:05.642Z,64151.21
2023-03-21T12:23:14.489Z,64157.26
2023-03-21T12:24:20.498Z,64168.84
2023-03-21T12:25:26.249Z,64165.53
2023-03-21T12:26:46.791Z,64156.72
2023-03-21T12:28:02.908Z,64160.02
2023-03-21T12:29:20.636Z,64158.91
2023-03-21T12:30:35.632Z,64164.09
2023-03-21T12:31:49.081Z,64189.25
2023-03-21T12:33:01.212Z,64190.91
2023-03-21T12:34:28.122Z,64187.15
2023-03-21T12:35:58.452Z,64199.16
2023-03-21T12:37:37.946Z,64195.52
2023-03-21T12:38:52.939Z,64198.52
2023-03-21T12:39:58.746Z,64183.75
2023-03-21T12:41:04.759Z,64179.85
2023-03-21T12:42:30.269Z,64191.24
2023-03-21T12:43:42.032Z,64184.29
2023-03-21T12:44:53.798Z,64190.91
2023-03-21T12:45:59.497Z,64183.96
2023-03-21T12:47:17.342Z,64182.85
2023-03-21T12:48:25.812Z,64182.30
2023-03-21T12:49:34.676Z,64154.07
2023-03-21T12:50:39.294Z,64167.94
2023-03-21T12:51:45.069Z,64156.27
2023-03-21T12:52:50.751Z,64168.18
2023-03-21T12:54:05.236Z,64156.05
2023-03-21T12:56:38.536Z,64149.65
2023-03-21T12:57:51.169Z,64151.64
2023-03-21T12:58:58.061Z,64136.33
2023-03-21T13:00:18.922Z,64140.84
2023-03-21T13:01:22.388Z,64140.84
2023-03-21T13:02:36.936Z,64135.79
2023-03-21T13:03:42.071Z,64135.79
2023-03-21T13:04:57.498Z,64133.57
2023-03-21T13:06:05.708Z,64118.14
2023-03-21T13:07:11.478Z,64117.05
2023-03-21T13:08:29.135Z,64128.72